sensor_id;sensor_type;location;lat;lon;timestamp;pressure;altitude;pressure_sealevel;temperature;humidity
71976;BME280;68326;52.124;5.424;2023-09-19T00:02:03;100707.72;;;15.18;100.00
71976;BME280;68326;52.124;5.424;2023-09-19T00:04:33;100709.72;;;15.15;100.00
71976;BME280;68326;52.124;5.424;2023-09-19T00:06:59;100721.16;;;15.14;100.00
71976;BME280;68326;52.124;5.424;2023-09-19T00:09:28;100719.91;;;15.06;100.00
71976;BME280;68326;52.124;5.424;2023-09-19T00:11:55;100719.19;;;15.04;100.00
71976;BME280;68326;52.124;5.424;2023-09-19T00:14:24;100727.28;;;15.01;100.00
71976;BME280;68326;52.124;5.424;2023-09-19T00:16:51;100733.78;;;14.96;100.00
71976;BME280;68326;52.124;5.424;2023-09-19T00:19:18;100731.16;;;14.96;100.00
71976;BME280;68326;52.124;5.424;2023-09-19T00:21:44;100741.97;;;14.91;100.00
71976;BME280;68326;52.124;5.424;2023-09-19T00:24:12;100734.00;;;14.93;100.00
71976;BME280;68326;52.124;5.424;2023-09-19T00:26:40;100733.03;;;14.94;100.00
71976;BME280;68326;52.124;5.424;2023-09-19T00:29:06;100733.16;;;14.92;100.00
71976;BME280;68326;52.124;5.424;2023-09-19T00:31:33;100734.19;;;14.89;100.00
71976;BME280;68326;52.124;5.424;2023-09-19T00:33:59;100732.44;;;14.90;100.00
71976;BME280;68326;52.124;5.424;2023-09-19T00:36:37;100740.31;;;14.90;100.00
71976;BME280;68326;52.124;5.424;2023-09-19T00:39:06;100739.56;;;14.88;100.00
71976;BME280;68326;52.124;5.424;2023-09-19T00:41:34;100743.84;;;14.89;100.00
71976;BME280;68326;52.124;5.424;2023-09-19T00:44:04;100741.03;;;14.92;100.00
71976;BME280;68326;52.124;5.424;2023-09-19T00:46:31;100746.28;;;14.92;100.00
71976;BME280;68326;52.124;5.424;2023-09-19T00:48:59;100744.47;;;14.93;100.00
71976;BME280;68326;52.124;5.424;2023-09-19T00:51:26;100744.69;;;14.89;100.00
71976;BME280;68326;52.124;5.424;2023-09-19T00:53:54;100746.38;;;14.91;100.00
71976;BME280;68326;52.124;5.424;2023-09-19T00:56:21;100750.56;;;14.93;100.00
71976;BME280;68326;52.124;5.424;2023-09-19T00:58:47;100755.69;;;14.95;100.00
71976;BME280;68326;52.124;5.424;2023-09-19T01:01:14;100753.56;;;15.00;100.00
71976;BME280;68326;52.124;5.424;2023-09-19T01:03:42;100758.72;;;15.01;100.00
71976;BME280;68326;52.124;5.424;2023-09-19T01:06:10;100760.38;;;15.02;100.00
71976;BME280;68326;52.124;5.424;2023-09-19T01:08:38;100763.13;;;15.01;100.00
71976;BME280;68326;52.124;5.424;2023-09-19T01:11:28;100761.75;;;15.08;100.00
71976;BME280;68326;52.124;5.424;2023-09-19T01:14:11;100766.97;;;15.08;100.00
71976;BME280;68326;52.124;5.424;2023-09-19T01:19:31;100754.50;;;15.12;100.00
71976;BME280;68326;52.124;5.424;2023-09-19T01:25:07;100763.00;;;15.15;100.00
71976;BME280;68326;52.124;5.424;2023-09-19T01:28:28;100760.69;;;15.11;100.00
71976;BME280;68326;52.124;5.424;2023-09-19T01:30:35;100763.44;;;15.09;100.00
71976;BME280;68326;52.124;5.424;2023-09-19T01:33:06;100761.00;;;15.06;100.00
71976;BME280;68326;52.124;5.424;2023-09-19T01:35:33;100766.25;;;15.06;100.00
71976;BME280;68326;52.124;5.424;2023-09-19T01:38:00;100768.13;;;15.04;100.00
71976;BME280;68326;52.124;5.424;2023-09-19T01:40:27;100766.25;;;15.06;100.00
71976;BME280;68326;52.124;5.424;2023-09-19T01:43:08;100761.84;;;15.06;100.00
71976;BME280;68326;52.124;5.424;2023-09-19T01:46:04;100764.34;;;15.08;100.00
71976;BME280;68326;52.124;5.424;2023-09-19T01:49:13;100773.78;;;15.11;100.00
71976;BME280;68326;52.124;5.424;2023-09-19T01:51:59;100771.16;;;15.11;100.00
71976;BME280;68326;52.124;5.424;2023-09-19T01:54:31;100773.78;;;15.11;100.00
71976;BME280;68326;52.124;5.424;2023-09-19T01:57:08;100783.22;;;15.13;100.00
71976;BME280;68326;52.124;5.424;2023-09-19T01:59:43;100776.19;;;15.14;100.00
71976;BME280;68326;52.124;5.424;2023-09-19T02:02:12;100775.56;;;15.10;100.00
71976;BME280;68326;52.124;5.424;2023-09-19T02:04:40;100779.97;;;15.09;100.00
71976;BME280;68326;52.124;5.424;2023-09-19T02:07:07;100779.97;;;15.09;100.00
71976;BME280;68326;52.124;5.424;2023-09-19T02:09:34;100776.53;;;15.09;100.00
71976;BME280;68326;52.124;5.424;2023-09-19T02:12:02;100775.66;;;15.08;100.00
71976;BME280;68326;52.124;5.424;2023-09-19T02:14:30;100772.31;;;15.06;100.00
71976;BME280;68326;52.124;5.424;2023-09-19T02:16:57;100773.28;;;15.05;100.00
71976;BME280;68326;52.124;5.424;2023-09-19T02:19:23;100769.84;;;15.05;100.00
71976;BME280;68326;52.124;5.424;2023-09-19T02:21:50;100774.22;;;15.04;100.00
71976;BME280;68326;52.124;5.424;2023-09-19T02:24:16;100773.38;;;15.04;100.00
71976;BME280;68326;52.124;5.424;2023-09-19T02:26:43;100772.78;;;15.00;100.00
71976;BME280;68326;52.124;5.424;2023-09-19T02:29:10;100779.78;;;15.00;100.00
71976;BME280;68326;52.124;5.424;2023-09-19T02:31:39;100781.56;;;14.99;100.00
71976;BME280;68326;52.124;5.424;2023-09-19T02:34:05;100779.19;;;14.96;100.00
71976;BME280;68326;52.124;5.424;2023-09-19T02:36:33;100781.91;;;14.95;100.00
71976;BME280;68326;52.124;5.424;2023-09-19T02:38:59;100787.97;;;14.95;100.00
71976;BME280;68326;52.124;5.424;2023-09-19T02:41:26;100796.66;;;14.96;100.00
71976;BME280;68326;52.124;5.424;2023-09-19T02:43:53;100787.22;;;14.93;100.00
71976;BME280;68326;52.124;5.424;2023-09-19T02:46:20;100790.28;;;14.87;100.00
71976;BME280;68326;52.124;5.424;2023-09-19T02:48:46;100790.41;;;14.85;99.87
71976;BME280;68326;52.124;5.424;2023-09-19T02:51:13;100783.91;;;14.78;99.44
71976;BME280;68326;52.124;5.424;2023-09-19T02:53:40;100787.66;;;14.74;100.00
71976;BME280;68326;52.124;5.424;2023-09-19T02:56:07;100784.63;;;14.67;99.66
71976;BME280;68326;52.124;5.424;2023-09-19T02:58:33;100788.31;;;14.65;99.03
71976;BME280;68326;52.124;5.424;2023-09-19T03:01:11;100796.25;;;14.63;99.26
71976;BME280;68326;52.124;5.424;2023-09-19T03:03:39;100792.47;;;14.55;99.06
71976;BME280;68326;52.124;5.424;2023-09-19T03:06:06;100795.59;;;14.47;98.27
71976;BME280;68326;52.124;5.424;2023-09-19T03:08:35;100796.44;;;14.47;98.66
71976;BME280;68326;52.124;5.424;2023-09-19T03:11:06;100787.22;;;14.42;98.20
71976;BME280;68326;52.124;5.424;2023-09-19T03:13:34;100779.69;;;14.37;98.07
71976;BME280;68326;52.124;5.424;2023-09-19T03:16:03;100784.28;;;14.34;98.02
71976;BME280;68326;52.124;5.424;2023-09-19T03:18:34;100790.56;;;14.31;97.41
71976;BME280;68326;52.124;5.424;2023-09-19T03:21:01;100787.22;;;14.29;97.48
71976;BME280;68326;52.124;5.424;2023-09-19T03:23:28;100786.03;;;14.20;96.97
71976;BME280;68326;52.124;5.424;2023-09-19T03:25:55;100786.34;;;14.16;97.43
71976;BME280;68326;52.124;5.424;2023-09-19T03:28:22;100784.66;;;14.15;97.12
71976;BME280;68326;52.124;5.424;2023-09-19T03:31:03;100781.00;;;14.17;96.46
71976;BME280;68326;52.124;5.424;2023-09-19T03:33:30;100783.41;;;14.07;96.33
71976;BME280;68326;52.124;5.424;2023-09-19T03:36:02;100787.16;;;14.03;95.87
71976;BME280;68326;52.124;5.424;2023-09-19T03:38:32;100793.53;;;13.99;95.86
71976;BME280;68326;52.124;5.424;2023-09-19T03:40:59;100793.63;;;13.98;95.88
71976;BME280;68326;52.124;5.424;2023-09-19T03:43:25;100780.03;;;13.93;95.91
71976;BME280;68326;52.124;5.424;2023-09-19T03:45:53;100772.34;;;13.90;94.76
71976;BME280;68326;52.124;5.424;2023-09-19T03:48:21;100773.41;;;13.87;94.58
71976;BME280;68326;52.124;5.424;2023-09-19T03:50:48;100776.22;;;13.84;94.46
71976;BME280;68326;52.124;5.424;2023-09-19T03:53:14;100777.38;;;13.80;94.21
71976;BME280;68326;52.124;5.424;2023-09-19T03:55:41;100793.78;;;13.82;93.52
71976;BME280;68326;52.124;5.424;2023-09-19T03:58:08;100786.03;;;13.80;92.99
71976;BME280;68326;52.124;5.424;2023-09-19T04:00:34;100787.09;;;13.78;92.74
71976;BME280;68326;52.124;5.424;2023-09-19T04:03:04;100792.31;;;13.78;92.54
71976;BME280;68326;52.124;5.424;2023-09-19T04:05:33;100804.56;;;13.77;92.75
71976;BME280;68326;52.124;5.424;2023-09-19T04:08:00;100801.38;;;13.72;91.85
71976;BME280;68326;52.124;5.424;2023-09-19T04:10:26;100805.78;;;13.72;92.20
71976;BME280;68326;52.124;5.424;2023-09-19T04:12:54;100812.59;;;13.74;91.82
71976;BME280;68326;52.124;5.424;2023-09-19T04:15:21;100815.41;;;13.71;91.41
71976;BME280;68326;52.124;5.424;2023-09-19T04:17:50;100811.84;;;13.72;91.60
71976;BME280;68326;52.124;5.424;2023-09-19T04:20:18;100817.16;;;13.71;91.61
71976;BME280;68326;52.124;5.424;2023-09-19T04:22:46;100821.88;;;13.65;90.62
71976;BME280;68326;52.124;5.424;2023-09-19T04:25:13;100813.84;;;13.69;91.71
71976;BME280;68326;52.124;5.424;2023-09-19T04:27:39;100825.88;;;13.71;91.00
71976;BME280;68326;52.124;5.424;2023-09-19T04:30:08;100829.63;;;13.67;91.30
71976;BME280;68326;52.124;5.424;2023-09-19T04:32:38;100835.69;;;13.68;90.57
71976;BME280;68326;52.124;5.424;2023-09-19T04:35:07;100835.78;;;13.66;91.06
71976;BME280;68326;52.124;5.424;2023-09-19T04:37:38;100843.53;;;13.68;91.04
71976;BME280;68326;52.124;5.424;2023-09-19T04:40:08;100849.78;;;13.65;91.02
71976;BME280;68326;52.124;5.424;2023-09-19T04:42:44;100863.69;;;13.65;90.06
71976;BME280;68326;52.124;5.424;2023-09-19T04:45:10;100864.34;;;13.69;90.47
71976;BME280;68326;52.124;5.424;2023-09-19T04:47:38;100866.31;;;13.65;90.91
71976;BME280;68326;52.124;5.424;2023-09-19T04:50:07;100863.69;;;13.65;89.72
71976;BME280;68326;52.124;5.424;2023-09-19T04:52:34;100855.84;;;13.65;89.78
71976;BME280;68326;52.124;5.424;2023-09-19T04:55:01;100858.38;;;13.67;90.63
71976;BME280;68326;52.124;5.424;2023-09-19T04:57:28;100848.97;;;13.64;89.74
71976;BME280;68326;52.124;5.424;2023-09-19T04:59:55;100848.97;;;13.64;90.04
71976;BME280;68326;52.124;5.424;2023-09-19T05:02:21;100844.47;;;13.66;90.05
71976;BME280;68326;52.124;5.424;2023-09-19T05:04:48;100854.72;;;13.70;89.90
71976;BME280;68326;52.124;5.424;2023-09-19T05:07:15;100850.44;;;13.69;89.82
71976;BME280;68326;52.124;5.424;2023-09-19T05:09:41;100854.19;;;13.64;89.99
71976;BME280;68326;52.124;5.424;2023-09-19T05:12:08;100861.63;;;13.71;89.69
71976;BME280;68326;52.124;5.424;2023-09-19T05:14:37;100862.50;;;13.71;89.56
71976;BME280;68326;52.124;5.424;2023-09-19T05:17:03;100860.69;;;13.72;89.95
71976;BME280;68326;52.124;5.424;2023-09-19T05:19:30;100860.69;;;13.72;89.41
71976;BME280;68326;52.124;5.424;2023-09-19T05:21:57;100865.94;;;13.72;89.84
71976;BME280;68326;52.124;5.424;2023-09-19T05:24:23;100862.38;;;13.73;90.01
71976;BME280;68326;52.124;5.424;2023-09-19T05:26:52;100863.97;;;13.75;90.20
71976;BME280;68326;52.124;5.424;2023-09-19T05:29:19;100863.22;;;13.73;89.75
71976;BME280;68326;52.124;5.424;2023-09-19T05:31:46;100865.84;;;13.73;90.19
71976;BME280;68326;52.124;5.424;2023-09-19T05:34:13;100861.53;;;13.72;90.43
71976;BME280;68326;52.124;5.424;2023-09-19T05:36:40;100864.97;;;13.73;90.62
71976;BME280;68326;52.124;5.424;2023-09-19T05:39:07;100858.91;;;13.72;91.11
71976;BME280;68326;52.124;5.424;2023-09-19T05:41:36;100854.44;;;13.74;90.79
71976;BME280;68326;52.124;5.424;2023-09-19T05:44:03;100851.44;;;13.80;90.34
71976;BME280;68326;52.124;5.424;2023-09-19T05:46:30;100857.19;;;13.85;90.60
71976;BME280;68326;52.124;5.424;2023-09-19T05:48:56;100859.81;;;13.85;90.55
71976;BME280;68326;52.124;5.424;2023-09-19T05:51:23;100857.09;;;13.87;90.57
71976;BME280;68326;52.124;5.424;2023-09-19T05:53:49;100862.03;;;13.92;89.79
71976;BME280;68326;52.124;5.424;2023-09-19T05:56:16;100868.00;;;13.94;90.25
71976;BME280;68326;52.124;5.424;2023-09-19T05:58:43;100873.16;;;13.95;90.33
71976;BME280;68326;52.124;5.424;2023-09-19T06:01:10;100873.69;;;14.00;90.30
71976;BME280;68326;52.124;5.424;2023-09-19T06:03:37;100877.91;;;14.03;90.31
71976;BME280;68326;52.124;5.424;2023-09-19T06:06:04;100870.88;;;14.03;89.95
71976;BME280;68326;52.124;5.424;2023-09-19T06:08:32;100879.78;;;14.01;90.55
71976;BME280;68326;52.124;5.424;2023-09-19T06:11:00;100877.78;;;14.04;90.47
71976;BME280;68326;52.124;5.424;2023-09-19T06:13:29;100881.44;;;14.02;90.73
71976;BME280;68326;52.124;5.424;2023-09-19T06:15:56;100894.63;;;14.00;90.79
71976;BME280;68326;52.124;5.424;2023-09-19T06:18:26;100898.09;;;14.01;90.77
71976;BME280;68326;52.124;5.424;2023-09-19T06:20:53;100892.66;;;14.04;90.77
71976;BME280;68326;52.124;5.424;2023-09-19T06:23:21;100895.25;;;14.04;91.34
71976;BME280;68326;52.124;5.424;2023-09-19T06:25:47;100902.94;;;14.07;90.85
71976;BME280;68326;52.124;5.424;2023-09-19T06:28:14;100896.66;;;14.10;90.61
71976;BME280;68326;52.124;5.424;2023-09-19T06:30:44;100902.44;;;14.15;90.65
71976;BME280;68326;52.124;5.424;2023-09-19T06:33:12;100888.41;;;14.16;90.52
71976;BME280;68326;52.124;5.424;2023-09-19T06:35:42;100893.13;;;14.23;90.83
71976;BME280;68326;52.124;5.424;2023-09-19T06:38:13;100885.19;;;14.25;90.75
71976;BME280;68326;52.124;5.424;2023-09-19T06:40:41;100877.88;;;14.30;91.40
71976;BME280;68326;52.124;5.424;2023-09-19T06:43:10;100888.47;;;14.28;91.13
71976;BME280;68326;52.124;5.424;2023-09-19T06:45:37;100884.59;;;14.34;90.86
71976;BME280;68326;52.124;5.424;2023-09-19T06:48:04;100878.34;;;14.37;91.06
71976;BME280;68326;52.124;5.424;2023-09-19T06:50:32;100885.03;;;14.41;91.42
71976;BME280;68326;52.124;5.424;2023-09-19T06:53:01;100894.34;;;14.45;91.57
71976;BME280;68326;52.124;5.424;2023-09-19T06:55:28;100880.97;;;14.50;92.06
71976;BME280;68326;52.124;5.424;2023-09-19T06:57:58;100891.22;;;14.53;92.25
71976;BME280;68326;52.124;5.424;2023-09-19T07:00:25;100882.03;;;14.60;92.28
71976;BME280;68326;52.124;5.424;2023-09-19T07:02:56;100882.59;;;14.65;91.91
71976;BME280;68326;52.124;5.424;2023-09-19T07:05:23;100873.59;;;14.69;91.82
71976;BME280;68326;52.124;5.424;2023-09-19T07:07:49;100885.53;;;14.73;92.05
71976;BME280;68326;52.124;5.424;2023-09-19T07:10:16;100882.72;;;14.76;92.05
71976;BME280;68326;52.124;5.424;2023-09-19T07:12:44;100882.81;;;14.87;91.49
71976;BME280;68326;52.124;5.424;2023-09-19T07:15:11;100875.59;;;14.91;91.58
71976;BME280;68326;52.124;5.424;2023-09-19T07:17:37;100887.44;;;14.97;91.09
71976;BME280;68326;52.124;5.424;2023-09-19T07:20:04;100890.56;;;15.02;90.93
71976;BME280;68326;52.124;5.424;2023-09-19T07:22:34;100885.88;;;15.07;90.99
71976;BME280;68326;52.124;5.424;2023-09-19T07:25:01;100886.38;;;15.12;90.18
71976;BME280;68326;52.124;5.424;2023-09-19T07:27:27;100904.31;;;15.18;90.58
71976;BME280;68326;52.124;5.424;2023-09-19T07:29:54;100908.19;;;15.25;90.68
71976;BME280;68326;52.124;5.424;2023-09-19T07:32:20;100906.28;;;15.27;90.12
71976;BME280;68326;52.124;5.424;2023-09-19T07:34:47;100905.78;;;15.35;89.17
71976;BME280;68326;52.124;5.424;2023-09-19T07:37:14;100914.16;;;15.40;89.37
71976;BME280;68326;52.124;5.424;2023-09-19T07:39:42;100916.97;;;15.50;89.14
71976;BME280;68326;52.124;5.424;2023-09-19T07:42:09;100921.56;;;15.59;88.23
71976;BME280;68326;52.124;5.424;2023-09-19T07:44:37;100907.53;;;15.60;87.86
71976;BME280;68326;52.124;5.424;2023-09-19T07:47:04;100911.19;;;15.70;87.60
71976;BME280;68326;52.124;5.424;2023-09-19T07:49:31;100916.72;;;15.79;87.51
71976;BME280;68326;52.124;5.424;2023-09-19T07:51:57;100909.16;;;15.87;86.87
71976;BME280;68326;52.124;5.424;2023-09-19T07:54:25;100916.91;;;15.88;86.54
71976;BME280;68326;52.124;5.424;2023-09-19T07:56:53;100916.88;;;16.01;86.49
71976;BME280;68326;52.124;5.424;2023-09-19T07:59:20;100917.25;;;16.08;87.05
71976;BME280;68326;52.124;5.424;2023-09-19T08:01:47;100922.69;;;16.18;85.95
71976;BME280;68326;52.124;5.424;2023-09-19T08:04:14;100914.31;;;16.13;85.51
71976;BME280;68326;52.124;5.424;2023-09-19T08:06:41;100912.41;;;16.15;86.04
71976;BME280;68326;52.124;5.424;2023-09-19T08:09:07;100912.78;;;16.21;86.02
71976;BME280;68326;52.124;5.424;2023-09-19T08:11:37;100917.03;;;16.35;86.24
71976;BME280;68326;52.124;5.424;2023-09-19T08:14:03;100915.97;;;16.38;86.82
71976;BME280;68326;52.124;5.424;2023-09-19T08:16:32;100910.91;;;16.47;85.22
71976;BME280;68326;52.124;5.424;2023-09-19T08:18:59;100914.34;;;16.48;85.10
71976;BME280;68326;52.124;5.424;2023-09-19T08:21:25;100911.81;;;16.46;85.27
71976;BME280;68326;52.124;5.424;2023-09-19T08:23:55;100921.06;;;16.52;84.89
71976;BME280;68326;52.124;5.424;2023-09-19T08:26:23;100910.16;;;16.45;84.98
71976;BME280;68326;52.124;5.424;2023-09-19T08:28:50;100912.22;;;16.53;85.09
71976;BME280;68326;52.124;5.424;2023-09-19T08:31:17;100920.97;;;16.65;85.28
71976;BME280;68326;52.124;5.424;2023-09-19T08:33:44;100913.56;;;16.70;84.80
71976;BME280;68326;52.124;5.424;2023-09-19T08:36:15;100909.03;;;16.72;85.50
71976;BME280;68326;52.124;5.424;2023-09-19T08:38:41;100907.88;;;16.76;85.36
71976;BME280;68326;52.124;5.424;2023-09-19T08:41:08;100913.31;;;16.86;85.12
71976;BME280;68326;52.124;5.424;2023-09-19T08:43:35;100903.00;;;16.83;84.22
71976;BME280;68326;52.124;5.424;2023-09-19T08:48:31;100913.91;;;16.89;85.33
71976;BME280;68326;52.124;5.424;2023-09-19T08:51:07;100906.03;;;17.01;85.17
71976;BME280;68326;52.124;5.424;2023-09-19T08:56:08;100906.28;;;17.09;83.53
71976;BME280;68326;52.124;5.424;2023-09-19T08:58:45;100902.47;;;17.13;84.51
71976;BME280;68326;52.124;5.424;2023-09-19T09:01:15;100903.31;;;17.25;83.98
71976;BME280;68326;52.124;5.424;2023-09-19T09:03:43;100901.63;;;17.46;83.19
71976;BME280;68326;52.124;5.424;2023-09-19T09:06:15;100904.97;;;17.60;80.76
71976;BME280;68326;52.124;5.424;2023-09-19T09:08:46;100896.56;;;17.66;79.83
71976;BME280;68326;52.124;5.424;2023-09-19T09:11:14;100912.97;;;17.69;79.27
71976;BME280;68326;52.124;5.424;2023-09-19T09:13:41;100920.16;;;17.67;80.13
71976;BME280;68326;52.124;5.424;2023-09-19T09:16:08;100903.78;;;17.64;80.25
71976;BME280;68326;52.124;5.424;2023-09-19T09:18:36;100908.44;;;17.60;81.07
71976;BME280;68326;52.124;5.424;2023-09-19T09:21:03;100905.78;;;17.71;79.22
71976;BME280;68326;52.124;5.424;2023-09-19T09:23:32;100895.75;;;17.77;78.69
71976;BME280;68326;52.124;5.424;2023-09-19T09:25:59;100898.59;;;17.73;79.18
71976;BME280;68326;52.124;5.424;2023-09-19T09:28:33;100888.59;;;17.56;78.99
71976;BME280;68326;52.124;5.424;2023-09-19T09:31:00;100896.59;;;17.55;77.79
71976;BME280;68326;52.124;5.424;2023-09-19T09:33:29;100895.53;;;17.46;77.41
71976;BME280;68326;52.124;5.424;2023-09-19T09:36:00;100885.13;;;17.56;78.88
71976;BME280;68326;52.124;5.424;2023-09-19T09:38:42;100900.06;;;17.66;79.11
71976;BME280;68326;52.124;5.424;2023-09-19T09:41:10;100883.41;;;17.88;77.52
71976;BME280;68326;52.124;5.424;2023-09-19T09:43:43;100882.09;;;17.94;76.88
71976;BME280;68326;52.124;5.424;2023-09-19T09:46:15;100884.94;;;18.02;77.11
71976;BME280;68326;52.124;5.424;2023-09-19T09:51:42;100867.00;;;18.28;75.38
71976;BME280;68326;52.124;5.424;2023-09-19T09:54:13;100880.22;;;18.38;75.23
71976;BME280;68326;52.124;5.424;2023-09-19T09:57:01;100875.66;;;18.40;75.61
71976;BME280;68326;52.124;5.424;2023-09-19T09:59:55;100873.09;;;18.29;75.25
71976;BME280;68326;52.124;5.424;2023-09-19T10:02:29;100874.31;;;18.46;75.62
71976;BME280;68326;52.124;5.424;2023-09-19T10:05:11;100881.31;;;18.36;76.27
71976;BME280;68326;52.124;5.424;2023-09-19T10:07:51;100878.88;;;18.23;75.63
71976;BME280;68326;52.124;5.424;2023-09-19T10:10:33;100874.69;;;18.20;76.31
71976;BME280;68326;52.124;5.424;2023-09-19T10:13:20;100879.06;;;18.31;74.65
71976;BME280;68326;52.124;5.424;2023-09-19T10:15:51;100882.69;;;18.30;74.83
71976;BME280;68326;52.124;5.424;2023-09-19T10:18:23;100902.19;;;18.27;74.50
71976;BME280;68326;52.124;5.424;2023-09-19T10:20:51;100887.75;;;18.22;76.04
71976;BME280;68326;52.124;5.424;2023-09-19T10:23:19;100886.31;;;18.18;75.94
71976;BME280;68326;52.124;5.424;2023-09-19T10:25:51;100869.69;;;18.17;75.27
71976;BME280;68326;52.124;5.424;2023-09-19T10:28:20;100865.44;;;18.26;74.40
71976;BME280;68326;52.124;5.424;2023-09-19T10:30:52;100857.75;;;18.34;73.84
71976;BME280;68326;52.124;5.424;2023-09-19T10:33:22;100872.16;;;18.51;73.29
71976;BME280;68326;52.124;5.424;2023-09-19T10:35:50;100854.97;;;18.57;73.56
71976;BME280;68326;52.124;5.424;2023-09-19T10:38:24;100864.22;;;18.72;73.18
71976;BME280;68326;52.124;5.424;2023-09-19T10:40:53;100851.44;;;18.88;72.73
71976;BME280;68326;52.124;5.424;2023-09-19T10:43:21;100852.25;;;19.10;71.61
71976;BME280;68326;52.124;5.424;2023-09-19T10:45:51;100842.50;;;19.10;71.92
71976;BME280;68326;52.124;5.424;2023-09-19T10:48:20;100846.06;;;18.90;71.36
71976;BME280;68326;52.124;5.424;2023-09-19T10:51:21;100832.16;;;18.88;71.60
71976;BME280;68326;52.124;5.424;2023-09-19T10:53:54;100829.22;;;18.81;72.55
71976;BME280;68326;52.124;5.424;2023-09-19T10:56:28;100834.28;;;18.73;72.16
71976;BME280;68326;52.124;5.424;2023-09-19T10:59:09;100830.22;;;18.69;72.86
71976;BME280;68326;52.124;5.424;2023-09-19T11:01:54;100832.41;;;18.85;72.49
71976;BME280;68326;52.124;5.424;2023-09-19T11:04:27;100824.13;;;18.89;72.13
71976;BME280;68326;52.124;5.424;2023-09-19T11:07:08;100826.66;;;19.01;72.56
71976;BME280;68326;52.124;5.424;2023-09-19T11:15:02;100816.28;;;19.09;70.74
71976;BME280;68326;52.124;5.424;2023-09-19T11:17:38;100819.56;;;18.91;71.88
71976;BME280;68326;52.124;5.424;2023-09-19T11:30:35;100822.25;;;19.51;69.37
71976;BME280;68326;52.124;5.424;2023-09-19T11:33:33;100821.50;;;19.40;70.27
71976;BME280;68326;52.124;5.424;2023-09-19T11:36:06;100810.38;;;19.26;69.15
71976;BME280;68326;52.124;5.424;2023-09-19T11:46:13;100801.66;;;18.95;70.90
71976;BME280;68326;52.124;5.424;2023-09-19T11:48:43;100806.28;;;19.03;71.16
71976;BME280;68326;52.124;5.424;2023-09-19T11:51:11;100787.13;;;19.10;70.83
71976;BME280;68326;52.124;5.424;2023-09-19T11:53:46;100802.56;;;19.15;69.44
71976;BME280;68326;52.124;5.424;2023-09-19T11:56:19;100789.13;;;19.38;69.63
71976;BME280;68326;52.124;5.424;2023-09-19T11:58:52;100783.75;;;19.39;68.95
71976;BME280;68326;52.124;5.424;2023-09-19T12:01:23;100790.66;;;19.30;68.29
71976;BME280;68326;52.124;5.424;2023-09-19T12:03:58;100800.56;;;19.38;68.50
71976;BME280;68326;52.124;5.424;2023-09-19T12:06:27;100793.44;;;19.29;67.58
71976;BME280;68326;52.124;5.424;2023-09-19T12:08:55;100807.84;;;19.25;67.35
71976;BME280;68326;52.124;5.424;2023-09-19T12:11:29;100809.38;;;19.27;67.32
71976;BME280;68326;52.124;5.424;2023-09-19T12:14:00;100824.53;;;19.25;68.01
71976;BME280;68326;52.124;5.424;2023-09-19T12:16:27;100809.84;;;19.32;68.13
71976;BME280;68326;52.124;5.424;2023-09-19T12:18:57;100795.53;;;19.35;66.56
71976;BME280;68326;52.124;5.424;2023-09-19T12:21:29;100804.28;;;19.35;67.15
71976;BME280;68326;52.124;5.424;2023-09-19T12:26:43;100803.75;;;19.42;67.49
71976;BME280;68326;52.124;5.424;2023-09-19T12:29:30;100797.06;;;19.38;68.25
71976;BME280;68326;52.124;5.424;2023-09-19T12:31:58;100801.22;;;19.30;68.25
71976;BME280;68326;52.124;5.424;2023-09-19T12:34:30;100794.81;;;19.23;68.39
71976;BME280;68326;52.124;5.424;2023-09-19T12:37:07;100804.28;;;19.26;68.11
71976;BME280;68326;52.124;5.424;2023-09-19T12:39:45;100796.34;;;19.26;68.37
71976;BME280;68326;52.124;5.424;2023-09-19T12:42:22;100795.13;;;19.30;68.57
71976;BME280;68326;52.124;5.424;2023-09-19T12:44:50;100797.19;;;19.26;68.44
71976;BME280;68326;52.124;5.424;2023-09-19T12:47:24;100797.47;;;19.23;69.01
71976;BME280;68326;52.124;5.424;2023-09-19T12:50:11;100794.38;;;19.18;68.88
71976;BME280;68326;52.124;5.424;2023-09-19T12:52:47;100825.84;;;19.10;69.33
71976;BME280;68326;52.124;5.424;2023-09-19T12:55:31;100809.91;;;19.11;69.65
71976;BME280;68326;52.124;5.424;2023-09-19T13:00:40;100808.38;;;19.09;69.79
71976;BME280;68326;52.124;5.424;2023-09-19T13:05:53;100807.69;;;19.17;69.97
71976;BME280;68326;52.124;5.424;2023-09-19T13:08:28;100803.41;;;19.25;69.95
71976;BME280;68326;52.124;5.424;2023-09-19T13:11:16;100807.03;;;19.24;69.46
71976;BME280;68326;52.124;5.424;2023-09-19T13:14:12;100817.19;;;19.29;69.04
71976;BME280;68326;52.124;5.424;2023-09-19T13:19:45;100803.56;;;19.24;69.62
71976;BME280;68326;52.124;5.424;2023-09-19T13:22:44;100819.81;;;19.19;69.76
71976;BME280;68326;52.124;5.424;2023-09-19T13:25:21;100816.69;;;19.04;71.09
71976;BME280;68326;52.124;5.424;2023-09-19T13:27:49;100818.19;;;18.97;71.35
71976;BME280;68326;52.124;5.424;2023-09-19T13:30:22;100818.31;;;18.95;71.66
71976;BME280;68326;52.124;5.424;2023-09-19T13:32:48;100817.75;;;18.92;71.66
71976;BME280;68326;52.124;5.424;2023-09-19T13:35:16;100809.03;;;19.01;72.13
71976;BME280;68326;52.124;5.424;2023-09-19T13:37:43;100810.50;;;19.15;71.27
71976;BME280;68326;52.124;5.424;2023-09-19T13:40:14;100803.28;;;19.17;70.97
71976;BME280;68326;52.124;5.424;2023-09-19T13:42:42;100793.84;;;19.24;71.08
71976;BME280;68326;52.124;5.424;2023-09-19T13:45:09;100796.19;;;19.27;71.04
71976;BME280;68326;52.124;5.424;2023-09-19T13:47:38;100784.97;;;19.35;70.26
71976;BME280;68326;52.124;5.424;2023-09-19T13:50:06;100789.13;;;19.38;70.17
71976;BME280;68326;52.124;5.424;2023-09-19T13:52:33;100791.94;;;19.36;70.14